createdAt,value
2018-11-29T00:00:45.207Z,14.30
2018-11-29T00:03:13.905Z,10.07
2018-11-29T00:05:42.322Z,9.80
2018-11-29T00:08:10.822Z,8.53
2018-11-29T00:10:39.300Z,11.90
2018-11-29T00:13:07.883Z,10.27
2018-11-29T00:15:36.410Z,14.20
2018-11-29T00:18:04.903Z,13.70
2018-11-29T00:20:33.809Z,11.73
2018-11-29T00:23:02.341Z,11.50
2018-11-29T00:25:30.800Z,11.70
2018-11-29T00:27:59.297Z,9.23
2018-11-29T00:30:27.786Z,10.90
2018-11-29T00:32:56.512Z,12.70
2018-11-29T00:35:25.020Z,11.73
2018-11-29T00:37:53.550Z,11.50
2018-11-29T00:40:23.096Z,10.43
2018-11-29T00:42:52.008Z,9.77
2018-11-29T00:45:22.688Z,10.33
2018-11-29T00:47:51.507Z,12.53
2018-11-29T00:50:20.671Z,11.27
2018-11-29T00:52:49.900Z,9.37
2018-11-29T00:55:19.485Z,14.77
2018-11-29T00:57:48.632Z,11.20
2018-11-29T01:00:20.001Z,10.70
2018-11-29T01:02:48.645Z,10.27
2018-11-29T01:05:17.149Z,8.83
2018-11-29T01:07:45.723Z,11.10
2018-11-29T01:10:17.981Z,10.17
2018-11-29T01:12:47.146Z,11.80
2018-11-29T01:15:17.610Z,7.93
2018-11-29T01:17:47.562Z,10.93
2018-11-29T01:20:17.114Z,10.73
2018-11-29T01:22:45.635Z,8.97
2018-11-29T01:25:15.037Z,10.47
2018-11-29T01:27:44.759Z,10.20
2018-11-29T01:30:15.101Z,10.50
2018-11-29T01:32:43.756Z,9.80
2018-11-29T01:35:13.235Z,12.40
2018-11-29T01:37:41.724Z,10.67
2018-11-29T01:40:15.974Z,8.63
2018-11-29T01:42:45.632Z,9.80
2018-11-29T01:45:14.319Z,9.73
2018-11-29T01:47:42.835Z,11.57
2018-11-29T01:50:11.561Z,10.00
2018-11-29T01:52:40.147Z,10.63
2018-11-29T01:55:09.591Z,9.70
2018-11-29T01:57:38.077Z,10.20
2018-11-29T02:00:09.572Z,11.23
2018-11-29T02:02:38.131Z,8.17
2018-11-29T02:05:08.385Z,9.97
2018-11-29T02:07:37.208Z,13.10
2018-11-29T02:10:12.944Z,12.33
2018-11-29T02:12:41.443Z,11.77
2018-11-29T02:15:10.044Z,15.10
2018-11-29T02:17:38.568Z,10.93
2018-11-29T02:20:10.453Z,12.67
2018-11-29T02:22:38.969Z,11.63
2018-11-29T02:25:07.892Z,14.23
2018-11-29T02:27:36.773Z,12.33
2018-11-29T02:30:09.560Z,12.30
2018-11-29T02:32:38.019Z,10.27
2018-11-29T02:35:07.543Z,12.60
2018-11-29T02:37:36.149Z,10.93
2018-11-29T02:40:06.332Z,13.23
2018-11-29T02:42:34.938Z,11.87
2018-11-29T02:45:03.423Z,13.07
2018-11-29T02:47:31.935Z,13.13
2018-11-29T02:50:00.442Z,11.93
2018-11-29T02:52:28.912Z,12.60
2018-11-29T02:54:57.420Z,15.67
2018-11-29T02:57:26.058Z,12.37
2018-11-29T02:59:54.563Z,10.40
2018-11-29T03:02:29.670Z,10.73
2018-11-29T03:04:58.234Z,15.37
2018-11-29T03:07:27.460Z,12.70
2018-11-29T03:09:55.939Z,11.40
2018-11-29T03:12:24.960Z,10.17
2018-11-29T03:14:53.673Z,13.10
2018-11-29T03:17:22.147Z,13.37
2018-11-29T03:19:50.621Z,12.77
2018-11-29T03:22:19.129Z,14.93
2018-11-29T03:24:47.636Z,11.17
2018-11-29T03:27:16.128Z,11.83
2018-11-29T03:29:44.730Z,13.60
2018-11-29T03:32:13.341Z,14.40
2018-11-29T03:34:41.830Z,15.80
2018-11-29T03:37:10.342Z,15.03
2018-11-29T03:39:38.830Z,15.63
2018-11-29T03:42:07.401Z,11.57
2018-11-29T03:44:36.510Z,13.90
2018-11-29T03:47:05.662Z,13.47
2018-11-29T03:49:34.286Z,15.43
2018-11-29T03:52:02.861Z,11.40
2018-11-29T03:54:31.496Z,12.50
2018-11-29T03:57:00.136Z,12.53
2018-11-29T03:59:28.735Z,14.53
2018-11-29T04:01:57.536Z,12.47
2018-11-29T04:04:26.307Z,15.37
2018-11-29T04:06:54.823Z,14.30
2018-11-29T04:09:23.585Z,12.97
2018-11-29T04:11:52.094Z,15.20
2018-11-29T04:14:20.581Z,12.87
2018-11-29T04:16:49.105Z,14.23
2018-11-29T04:19:17.691Z,13.90
2018-11-29T04:21:46.299Z,13.97
2018-11-29T04:24:14.820Z,16.57
2018-11-29T04:26:43.386Z,11.63
2018-11-29T04:29:11.909Z,14.57
2018-11-29T04:31:41.371Z,14.33
2018-11-29T04:34:09.892Z,14.50
2018-11-29T04:36:38.549Z,13.90
2018-11-29T04:39:08.311Z,15.03
2018-11-29T04:41:36.941Z,13.67
2018-11-29T04:44:05.507Z,15.83
2018-11-29T04:46:48.524Z,14.47
2018-11-29T04:49:17.048Z,14.70
2018-11-29T04:51:45.857Z,14.50
2018-11-29T04:54:14.331Z,17.00
2018-11-29T04:56:42.857Z,19.20
2018-11-29T04:59:11.516Z,17.17
2018-11-29T05:01:40.040Z,15.53
2018-11-29T05:04:08.796Z,18.10
2018-11-29T05:06:37.574Z,14.27
2018-11-29T05:09:08.612Z,17.13
2018-11-29T05:11:38.424Z,13.77
2018-11-29T05:14:07.287Z,14.33
2018-11-29T05:16:35.843Z,13.97
2018-11-29T05:19:04.500Z,12.70
2018-11-29T05:21:33.022Z,14.40
2018-11-29T05:24:01.557Z,15.73
2018-11-29T05:26:30.046Z,14.37
2018-11-29T05:28:58.563Z,16.67
2018-11-29T05:31:27.093Z,13.17
2018-11-29T05:33:55.760Z,14.30
2018-11-29T05:36:24.263Z,15.87
2018-11-29T05:38:53.412Z,12.70
2018-11-29T05:41:22.004Z,16.87
2018-11-29T05:43:51.392Z,18.17
2018-11-29T05:46:20.026Z,18.77
2018-11-29T05:48:48.529Z,16.67
2018-11-29T05:51:17.277Z,17.10
2018-11-29T05:53:45.720Z,17.83
2018-11-29T05:56:14.334Z,17.53
2018-11-29T05:58:50.694Z,14.20
2018-11-29T06:01:25.300Z,17.33
2018-11-29T06:04:00.668Z,19.83
2018-11-29T06:06:29.349Z,14.93
2018-11-29T06:08:58.041Z,17.90
2018-11-29T06:11:26.762Z,16.53
2018-11-29T06:13:55.395Z,17.33
2018-11-29T06:16:24.005Z,17.57
2018-11-29T06:18:53.599Z,16.67
2018-11-29T06:21:22.863Z,21.87
2018-11-29T06:23:51.341Z,16.30
2018-11-29T06:26:19.865Z,16.63
2018-11-29T06:28:49.060Z,17.83
2018-11-29T06:31:18.471Z,15.50
2018-11-29T06:33:47.165Z,20.37
2018-11-29T06:36:15.746Z,18.03
2018-11-29T06:38:44.230Z,18.50
2018-11-29T06:41:12.882Z,13.70
2018-11-29T06:43:41.404Z,16.30
2018-11-29T06:46:09.973Z,15.90
2018-11-29T06:48:38.936Z,14.27
2018-11-29T06:51:07.527Z,16.53
2018-11-29T06:53:41.364Z,15.00
2018-11-29T06:56:09.992Z,12.23
2018-11-29T06:58:38.711Z,12.40
2018-11-29T07:01:08.247Z,14.47
2018-11-29T07:03:36.950Z,13.17
2018-11-29T07:06:07.744Z,13.20
2018-11-29T07:08:36.307Z,13.97
2018-11-29T07:11:06.016Z,13.00
2018-11-29T07:13:35.575Z,15.07
2018-11-29T07:16:04.438Z,9.77
2018-11-29T07:18:33.500Z,17.87
2018-11-29T07:21:13.348Z,17.00
2018-11-29T07:23:41.931Z,15.43
2018-11-29T07:26:10.672Z,13.90
2018-11-29T07:28:39.529Z,17.73
2018-11-29T07:31:08.688Z,17.33
2018-11-29T07:33:37.647Z,13.73
2018-11-29T07:36:07.129Z,15.33
2018-11-29T07:38:35.821Z,16.97
2018-11-29T07:41:04.389Z,15.80
2018-11-29T07:43:33.487Z,16.20
2018-11-29T07:46:02.287Z,14.17
2018-11-29T07:48:31.091Z,18.80
2018-11-29T07:51:01.422Z,15.03
2018-11-29T07:53:30.194Z,13.33
2018-11-29T07:55:58.913Z,18.43
2018-11-29T07:58:27.393Z,17.07
2018-11-29T08:00:55.916Z,16.23
2018-11-29T08:03:24.695Z,13.83
2018-11-29T08:05:53.481Z,15.27
2018-11-29T08:08:22.147Z,17.63
2018-11-29T08:10:51.224Z,16.10
2018-11-29T08:13:19.719Z,19.73
2018-11-29T08:15:48.678Z,15.20
2018-11-29T08:18:17.389Z,20.10
2018-11-29T08:20:45.841Z,13.97
2018-11-29T08:23:14.882Z,17.27
2018-11-29T08:25:43.346Z,15.77
2018-11-29T08:28:13.254Z,17.50
2018-11-29T08:30:41.809Z,15.20
2018-11-29T08:33:10.431Z,17.17
2018-11-29T08:35:39.002Z,22.93
2018-11-29T08:38:08.087Z,12.90
2018-11-29T08:40:37.208Z,17.00
2018-11-29T08:43:06.769Z,17.67
2018-11-29T08:45:35.574Z,13.93
2018-11-29T08:48:04.203Z,16.47
2018-11-29T08:50:33.808Z,14.67
2018-11-29T08:53:02.443Z,17.30
2018-11-29T08:55:31.012Z,11.57
2018-11-29T08:57:59.571Z,17.13
2018-11-29T09:00:28.408Z,16.43
2018-11-29T09:02:56.900Z,15.13
2018-11-29T09:05:25.453Z,15.07
2018-11-29T09:07:54.451Z,17.33
2018-11-29T09:10:23.919Z,19.70
2018-11-29T09:12:59.282Z,15.10
2018-11-29T09:15:27.836Z,15.73
2018-11-29T09:17:56.303Z,16.97
2018-11-29T09:20:25.060Z,16.00
2018-11-29T09:22:53.917Z,17.90
2018-11-29T09:25:23.259Z,17.30
2018-11-29T09:27:51.967Z,18.43
2018-11-29T09:30:24.073Z,17.90
2018-11-29T09:32:54.546Z,17.43
2018-11-29T09:35:23.138Z,16.87
2018-11-29T09:37:51.618Z,21.53
2018-11-29T09:40:20.459Z,23.13
2018-11-29T09:42:49.045Z,21.87
2018-11-29T09:45:19.732Z,22.70
2018-11-29T09:47:49.806Z,17.77
2018-11-29T09:50:18.931Z,24.73
2018-11-29T09:52:47.554Z,21.53
2018-11-29T09:55:17.040Z,20.10
2018-11-29T09:57:46.656Z,17.57
2018-11-29T10:00:31.534Z,23.40
2018-11-29T10:03:08.894Z,16.53
2018-11-29T10:05:37.779Z,23.27
2018-11-29T10:08:11.707Z,18.63
2018-11-29T10:10:36.543Z,17.87
2018-11-29T10:13:06.019Z,20.07
2018-11-29T10:15:34.844Z,23.47
2018-11-29T10:18:03.940Z,19.50
2018-11-29T10:20:32.686Z,23.67
2018-11-29T10:23:01.376Z,18.23
2018-11-29T10:25:30.562Z,20.27
2018-11-29T10:28:02.295Z,21.07
2018-11-29T10:30:33.159Z,19.13
2018-11-29T10:33:01.852Z,20.50
2018-11-29T10:35:30.732Z,19.60
2018-11-29T10:38:00.373Z,21.40
2018-11-29T10:40:29.707Z,19.97
2018-11-29T10:42:58.500Z,19.07
2018-11-29T10:45:28.251Z,25.47
2018-11-29T10:48:04.055Z,27.53
2018-11-29T10:50:33.142Z,23.93
2018-11-29T10:53:02.099Z,22.87
2018-11-29T10:55:31.171Z,23.33
2018-11-29T10:58:00.179Z,21.60
2018-11-29T11:00:33.953Z,20.60
2018-11-29T11:03:09.196Z,24.80
2018-11-29T11:05:38.800Z,23.03
2018-11-29T11:08:09.323Z,29.37
2018-11-29T11:10:39.433Z,26.13
2018-11-29T11:13:08.725Z,30.03
2018-11-29T11:15:38.124Z,24.07
2018-11-29T11:18:08.282Z,22.70
2018-11-29T11:20:37.626Z,25.67
2018-11-29T11:23:06.281Z,28.80
2018-11-29T11:25:35.650Z,27.70
2018-11-29T11:28:04.861Z,29.17
2018-11-29T11:30:33.514Z,30.40
2018-11-29T11:33:02.027Z,28.27
2018-11-29T11:35:31.415Z,27.87
2018-11-29T11:38:02.247Z,28.60
2018-11-29T11:40:30.867Z,28.63
2018-11-29T11:42:59.431Z,20.43
2018-11-29T11:45:28.088Z,29.73
2018-11-29T11:48:03.023Z,27.70
2018-11-29T11:50:26.730Z,29.93
2018-11-29T11:52:56.911Z,25.30
2018-11-29T11:55:29.930Z,27.67
2018-11-29T11:57:54.737Z,25.03
2018-11-29T12:00:25.478Z,31.00
2018-11-29T12:02:57.123Z,28.83
2018-11-29T12:05:27.131Z,26.57
2018-11-29T12:07:55.779Z,25.60
2018-11-29T12:10:25.719Z,23.40
2018-11-29T12:12:54.779Z,20.10
2018-11-29T12:15:24.139Z,27.30
2018-11-29T12:17:54.139Z,22.37
2018-11-29T12:20:23.710Z,23.33
2018-11-29T12:22:52.725Z,24.57
2018-11-29T12:25:22.489Z,25.90
2018-11-29T12:27:52.418Z,23.13
2018-11-29T12:30:26.391Z,26.27
2018-11-29T12:32:57.304Z,23.07
2018-11-29T12:35:25.806Z,29.30
2018-11-29T12:37:54.375Z,25.37
2018-11-29T12:40:22.941Z,23.87
2018-11-29T12:42:51.539Z,27.60
2018-11-29T12:45:20.068Z,24.87
2018-11-29T12:47:48.862Z,27.83
2018-11-29T12:50:19.604Z,27.93
2018-11-29T12:52:48.201Z,30.97
2018-11-29T12:55:17.781Z,28.03
2018-11-29T12:57:46.292Z,31.80
2018-11-29T13:00:16.955Z,26.53
2018-11-29T13:02:50.097Z,25.87
2018-11-29T13:05:18.741Z,28.97
2018-11-29T13:07:48.057Z,34.17
2018-11-29T13:10:17.876Z,32.90
2018-11-29T13:12:46.467Z,31.80
2018-11-29T13:15:16.627Z,32.03
2018-11-29T13:17:45.445Z,34.27
2018-11-29T13:20:16.824Z,34.43
2018-11-29T13:22:45.401Z,32.07
2018-11-29T13:25:17.095Z,24.23
2018-11-29T13:27:46.454Z,27.23
2018-11-29T13:30:21.964Z,24.70
2018-11-29T13:32:52.029Z,31.20
2018-11-29T13:35:22.848Z,23.27
2018-11-29T13:37:53.958Z,29.53
2018-11-29T13:40:22.458Z,30.30
2018-11-29T13:42:50.966Z,31.03
2018-11-29T13:45:19.490Z,30.83
2018-11-29T13:47:48.003Z,30.07
2018-11-29T13:50:17.557Z,27.27
2018-11-29T13:52:46.483Z,28.00
2018-11-29T13:55:16.080Z,28.13
2018-11-29T13:57:46.655Z,27.63
2018-11-29T14:00:17.085Z,29.03
2018-11-29T14:02:47.169Z,31.00
2018-11-29T14:05:15.810Z,23.73
2018-11-29T14:07:44.409Z,27.27
2018-11-29T14:10:16.058Z,25.20
2018-11-29T14:12:45.517Z,29.17
2018-11-29T14:15:16.035Z,22.83
2018-11-29T14:17:45.223Z,22.17
2018-11-29T14:20:14.384Z,25.30
2018-11-29T14:22:43.007Z,22.10
2018-11-29T14:25:12.660Z,28.00
2018-11-29T14:27:42.040Z,25.40
2018-11-29T14:30:12.946Z,25.43
2018-11-29T14:32:41.468Z,24.40
2018-11-29T14:35:09.992Z,23.27
2018-11-29T14:37:38.614Z,19.47
2018-11-29T14:40:23.996Z,24.03
2018-11-29T14:42:55.911Z,20.40
2018-11-29T14:45:26.687Z,19.50
2018-11-29T14:47:55.855Z,23.00
2018-11-29T14:50:36.588Z,17.97
2018-11-29T14:53:05.555Z,20.97
2018-11-29T14:55:34.137Z,23.53
2018-11-29T14:58:04.836Z,16.33
2018-11-29T15:00:33.424Z,20.57
2018-11-29T15:03:03.846Z,19.57
2018-11-29T15:05:32.989Z,21.13
2018-11-29T15:08:01.611Z,17.17
2018-11-29T15:10:30.281Z,22.63
2018-11-29T15:12:58.917Z,24.67
2018-11-29T15:15:27.577Z,21.50
2018-11-29T15:17:56.237Z,22.53
2018-11-29T15:20:27.649Z,21.30
2018-11-29T15:22:56.440Z,20.30
2018-11-29T15:25:25.504Z,22.73
2018-11-29T15:27:55.305Z,22.07
2018-11-29T15:30:24.180Z,21.70
2018-11-29T15:32:52.773Z,22.60
2018-11-29T15:35:21.927Z,20.90
2018-11-29T15:37:51.072Z,16.13
2018-11-29T15:40:19.737Z,15.97
2018-11-29T15:42:49.342Z,16.80
2018-11-29T15:45:20.272Z,24.07
2018-11-29T15:47:49.636Z,16.43
2018-11-29T15:50:19.185Z,17.60
2018-11-29T15:52:47.929Z,19.83
2018-11-29T15:55:17.732Z,19.27
2018-11-29T15:57:47.381Z,17.70
2018-11-29T16:00:26.676Z,18.70
2018-11-29T16:02:59.430Z,16.80
2018-11-29T16:05:28.026Z,14.17
2018-11-29T16:07:56.578Z,16.93
2018-11-29T16:10:27.652Z,18.93
2018-11-29T16:12:56.252Z,14.87
2018-11-29T16:15:25.545Z,17.57
2018-11-29T16:17:54.310Z,16.87
2018-11-29T16:20:25.282Z,14.00
2018-11-29T16:22:54.393Z,18.60
2018-11-29T16:25:23.422Z,13.87
2018-11-29T16:27:52.838Z,15.03
2018-11-29T16:30:28.240Z,15.87
2018-11-29T16:32:58.713Z,13.47
2018-11-29T16:35:27.206Z,14.77
2018-11-29T16:37:55.756Z,14.53
2018-11-29T16:40:24.547Z,14.00
2018-11-29T16:42:53.305Z,13.23
2018-11-29T16:45:21.854Z,13.73
2018-11-29T16:47:50.451Z,14.70
2018-11-29T16:50:18.991Z,10.80
2018-11-29T16:52:47.907Z,13.43
2018-11-29T16:55:16.602Z,12.73
2018-11-29T16:57:47.503Z,11.10
2018-11-29T17:00:18.071Z,15.53
2018-11-29T17:02:46.623Z,11.17
2018-11-29T17:05:15.292Z,8.73
2018-11-29T17:07:44.690Z,12.40
2018-11-29T17:10:16.279Z,10.70
2018-11-29T17:12:47.760Z,9.63
2018-11-29T17:15:17.563Z,10.30
2018-11-29T17:17:46.425Z,11.67
2018-11-29T17:20:16.648Z,10.27
2018-11-29T17:22:46.495Z,14.60
2018-11-29T17:25:16.310Z,12.53
2018-11-29T17:27:44.875Z,12.50
2018-11-29T17:30:23.351Z,11.93
2018-11-29T17:32:54.439Z,15.47
2018-11-29T17:35:23.013Z,10.27
2018-11-29T17:37:52.457Z,13.23
2018-11-29T17:40:22.112Z,12.00
2018-11-29T17:42:52.171Z,11.63
2018-11-29T17:45:23.941Z,15.33
2018-11-29T17:47:54.838Z,11.40
2018-11-29T17:50:26.330Z,15.70
2018-11-29T17:52:55.019Z,12.47
2018-11-29T17:55:23.726Z,13.97
2018-11-29T17:57:52.374Z,10.90
2018-11-29T18:00:23.275Z,13.77
2018-11-29T18:02:52.067Z,28.13
2018-11-29T18:05:20.646Z,14.33
2018-11-29T18:07:49.272Z,14.07
2018-11-29T18:10:20.532Z,14.43
2018-11-29T18:12:50.935Z,14.30
2018-11-29T18:15:23.715Z,16.53
2018-11-29T18:17:52.369Z,16.10
2018-11-29T18:20:21.048Z,17.33
2018-11-29T18:22:51.465Z,14.07
2018-11-29T18:25:20.013Z,12.47
2018-11-29T18:27:49.767Z,16.60
2018-11-29T18:30:19.740Z,13.30
2018-11-29T18:32:48.294Z,11.50
2018-11-29T18:35:16.936Z,13.73
2018-11-29T18:37:45.525Z,16.90
2018-11-29T18:40:17.216Z,17.07
2018-11-29T18:42:46.787Z,15.07
2018-11-29T18:45:17.918Z,16.60
2018-11-29T18:47:48.293Z,11.03
2018-11-29T18:50:20.609Z,15.43
2018-11-29T18:52:49.293Z,14.07
2018-11-29T18:55:19.662Z,13.17
2018-11-29T18:57:49.143Z,14.77
2018-11-29T19:00:29.386Z,12.47
2018-11-29T19:02:57.939Z,14.53
2018-11-29T19:05:26.427Z,14.80
2018-11-29T19:07:54.969Z,16.30
2018-11-29T19:10:24.024Z,17.97
2018-11-29T19:12:57.811Z,15.20
2018-11-29T19:15:26.357Z,13.03
2018-11-29T19:17:54.901Z,12.13
2018-11-29T19:20:23.418Z,12.97
2018-11-29T19:22:51.922Z,13.83
2018-11-29T19:25:20.921Z,12.03
2018-11-29T19:27:50.127Z,12.50
2018-11-29T19:30:22.807Z,10.97
2018-11-29T19:32:54.111Z,11.87
2018-11-29T19:35:22.695Z,10.33
2018-11-29T19:37:51.209Z,13.07
2018-11-29T19:40:19.708Z,11.60
2018-11-29T19:42:48.211Z,9.93
2018-11-29T19:45:16.764Z,11.07
2018-11-29T19:47:45.758Z,13.03
2018-11-29T19:50:16.732Z,12.00
2018-11-29T19:52:48.329Z,13.57
2018-11-29T19:55:19.094Z,13.80
2018-11-29T20:00:51.541Z,11.60
2018-11-29T20:03:20.089Z,15.13
2018-11-29T20:05:49.489Z,12.60
2018-11-29T20:08:18.014Z,13.57
2018-11-29T20:10:46.547Z,10.60
2018-11-29T20:13:15.773Z,12.00
2018-11-29T20:15:48.316Z,12.40
2018-11-29T20:18:16.851Z,11.77
2018-11-29T20:20:45.299Z,14.20
2018-11-29T20:23:14.660Z,10.57
2018-11-29T20:25:44.432Z,12.67
2018-11-29T20:28:13.190Z,13.67
2018-11-29T20:30:45.720Z,11.70
2018-11-29T20:33:15.241Z,12.77
2018-11-29T20:35:43.688Z,12.50
2018-11-29T20:38:12.181Z,13.27
2018-11-29T20:40:42.223Z,12.60
2018-11-29T20:43:10.920Z,14.10
2018-11-29T20:45:50.295Z,12.87
2018-11-29T20:48:20.095Z,12.03
2018-11-29T20:50:49.266Z,12.03
2018-11-29T20:53:21.520Z,9.23
2018-11-29T20:55:50.969Z,11.43
2018-11-29T20:58:19.440Z,10.43
2018-11-29T21:00:48.403Z,8.90
2018-11-29T21:03:16.830Z,9.03
2018-11-29T21:05:45.271Z,11.43
2018-11-29T21:08:13.896Z,9.27
2018-11-29T21:10:42.386Z,8.50
2018-11-29T21:13:10.851Z,10.67
2018-11-29T21:15:41.505Z,10.33
2018-11-29T21:18:12.398Z,10.97
2018-11-29T21:20:41.724Z,10.03
2018-11-29T21:23:11.735Z,13.83
2018-11-29T21:25:40.253Z,10.27
2018-11-29T21:28:08.773Z,10.40
2018-11-29T21:30:37.245Z,11.17
2018-11-29T21:33:06.383Z,12.20
2018-11-29T21:35:34.864Z,11.63
2018-11-29T21:38:34.423Z,9.80
2018-11-29T21:41:04.284Z,10.67
2018-11-29T21:43:32.769Z,10.63
2018-11-29T21:46:01.234Z,10.87
2018-11-29T21:48:29.718Z,10.53
2018-11-29T21:50:58.219Z,10.43
2018-11-29T21:53:27.133Z,12.03
2018-11-29T21:55:56.235Z,10.23
2018-11-29T21:58:25.225Z,9.90
2018-11-29T22:00:53.700Z,12.63
2018-11-29T22:03:29.248Z,11.57
2018-11-29T22:05:57.733Z,9.00
2018-11-29T22:08:26.295Z,11.20
2018-11-29T22:10:54.813Z,11.77
2018-11-29T22:13:23.678Z,11.83
2018-11-29T22:15:52.564Z,10.03
2018-11-29T22:18:23.526Z,12.00
2018-11-29T22:20:56.695Z,10.67
2018-11-29T22:23:25.165Z,9.17
2018-11-29T22:25:55.971Z,9.87
2018-11-29T22:28:24.873Z,11.10
2018-11-29T22:30:53.664Z,7.83
2018-11-29T22:33:22.800Z,9.20
2018-11-29T22:35:51.419Z,9.40
2018-11-29T22:38:20.586Z,10.20
2018-11-29T22:40:49.263Z,10.60
2018-11-29T22:43:18.068Z,10.53
2018-11-29T22:45:46.720Z,10.10
2018-11-29T22:48:15.225Z,9.70
2018-11-29T22:50:44.457Z,9.73
2018-11-29T22:53:12.966Z,8.87
2018-11-29T22:55:41.521Z,11.70
2018-11-29T22:58:10.722Z,9.27
2018-11-29T23:00:43.542Z,8.97
2018-11-29T23:03:12.999Z,11.47
2018-11-29T23:05:41.507Z,7.87
2018-11-29T23:08:09.994Z,9.00
2018-11-29T23:10:38.655Z,9.20
2018-11-29T23:13:07.668Z,10.17
2018-11-29T23:15:36.209Z,8.50
2018-11-29T23:18:04.737Z,9.40
2018-11-29T23:20:33.406Z,7.67
2018-11-29T23:23:02.587Z,8.50
2018-11-29T23:25:31.121Z,7.10
2018-11-29T23:27:59.693Z,9.07
2018-11-29T23:30:28.925Z,8.30
2018-11-29T23:32:58.135Z,9.63
2018-11-29T23:35:27.282Z,8.10
2018-11-29T23:37:55.774Z,7.77
2018-11-29T23:40:24.293Z,8.67
2018-11-29T23:42:53.264Z,8.80
2018-11-29T23:45:21.878Z,9.23
2018-11-29T23:47:50.393Z,8.37
2018-11-29T23:50:19.644Z,10.00
2018-11-29T23:52:48.425Z,8.57
2018-11-29T23:55:19.312Z,8.37
2018-11-29T23:57:47.971Z,7.60
